createdAt,value
2023-02-09T00:01:43.469Z,36.00
2023-02-09T00:04:13.819Z,37.13
2023-02-09T00:06:41.914Z,35.93
2023-02-09T00:09:10.073Z,38.03
2023-02-09T00:11:55.366Z,36.87
2023-02-09T00:14:23.451Z,37.20
2023-02-09T00:16:53.621Z,36.73
2023-02-09T00:19:22.684Z,37.13
2023-02-09T00:21:50.747Z,37.27
2023-02-09T00:24:18.917Z,36.60
2023-02-09T00:26:47.089Z,36.37
2023-02-09T00:29:15.563Z,37.43
2023-02-09T00:31:43.622Z,36.87
2023-02-09T00:34:13.090Z,35.70
2023-02-09T00:36:41.111Z,39.00
2023-02-09T00:39:08.990Z,38.27
2023-02-09T00:41:51.001Z,36.77
2023-02-09T00:44:19.033Z,36.37
2023-02-09T00:46:52.250Z,36.13
2023-02-09T00:49:22.196Z,37.33
2023-02-09T00:51:50.318Z,37.27
2023-02-09T00:54:18.468Z,36.20
2023-02-09T00:56:46.736Z,37.33
2023-02-09T00:59:16.565Z,38.33
2023-02-09T01:01:44.617Z,37.40
2023-02-09T01:04:13.116Z,37.83
2023-02-09T01:06:43.815Z,36.43
2023-02-09T01:09:11.858Z,37.00
2023-02-09T01:11:40.262Z,38.53
2023-02-09T01:14:09.894Z,37.00
2023-02-09T01:16:37.821Z,37.30
2023-02-09T01:19:05.729Z,36.23
2023-02-09T01:21:33.978Z,36.63
2023-02-09T01:24:03.311Z,37.03
2023-02-09T01:26:31.324Z,37.83
2023-02-09T01:28:59.292Z,37.37
2023-02-09T01:31:29.403Z,36.70
2023-02-09T01:33:59.152Z,35.97
2023-02-09T01:36:27.534Z,37.47
2023-02-09T01:38:57.586Z,36.23
2023-02-09T01:41:27.800Z,37.07
2023-02-09T01:43:58.383Z,35.60
2023-02-09T01:46:27.799Z,36.83
2023-02-09T01:49:02.784Z,37.60
2023-02-09T01:51:34.430Z,36.37
2023-02-09T01:54:07.934Z,37.33
2023-02-09T01:56:40.203Z,38.80
2023-02-09T01:59:09.035Z,37.17
2023-02-09T02:01:37.480Z,38.27
2023-02-09T02:04:06.785Z,37.70
2023-02-09T02:06:35.108Z,36.30
2023-02-09T02:09:10.493Z,37.23
2023-02-09T02:11:41.215Z,38.27
2023-02-09T02:14:27.049Z,38.70
2023-02-09T02:17:07.669Z,36.93
2023-02-09T02:20:12.710Z,37.33
2023-02-09T02:23:00.841Z,36.87
2023-02-09T02:26:17.041Z,36.43
2023-02-09T02:29:12.785Z,35.70
2023-02-09T02:32:11.233Z,34.83
2023-02-09T02:34:46.575Z,36.47
2023-02-09T02:37:33.931Z,37.43
2023-02-09T02:40:10.484Z,37.27
2023-02-09T02:42:49.363Z,37.73
2023-02-09T02:45:29.592Z,37.30
2023-02-09T02:48:06.629Z,36.07
2023-02-09T02:50:39.917Z,36.37
2023-02-09T02:53:11.979Z,36.07
2023-02-09T02:55:40.691Z,35.50
2023-02-09T02:58:13.218Z,35.53
2023-02-09T03:00:45.568Z,35.60
2023-02-09T03:03:18.321Z,37.53
2023-02-09T03:05:47.244Z,36.57
2023-02-09T03:08:15.218Z,35.50
2023-02-09T03:10:44.544Z,35.43
2023-02-09T03:13:30.245Z,34.97
2023-02-09T03:16:16.827Z,36.80
2023-02-09T03:18:58.448Z,33.27
2023-02-09T03:21:33.131Z,33.70
2023-02-09T03:24:05.677Z,36.73
2023-02-09T03:26:41.187Z,34.87
2023-02-09T03:29:10.427Z,35.00
2023-02-09T03:31:39.621Z,33.07
2023-02-09T03:34:11.162Z,33.97
2023-02-09T03:36:40.612Z,33.83
2023-02-09T03:39:08.590Z,33.53
2023-02-09T03:41:38.024Z,32.37
2023-02-09T03:44:23.904Z,33.63
2023-02-09T03:46:51.945Z,33.17
2023-02-09T03:49:21.558Z,32.80
2023-02-09T03:51:49.743Z,34.07
2023-02-09T03:54:17.812Z,32.60
2023-02-09T03:56:48.014Z,32.67
2023-02-09T03:59:16.120Z,32.77
2023-02-09T04:01:44.134Z,32.03
2023-02-09T04:04:12.057Z,32.23
2023-02-09T04:06:41.451Z,32.17
2023-02-09T04:09:09.560Z,31.33
2023-02-09T04:11:37.670Z,31.73
2023-02-09T04:14:06.544Z,31.83
2023-02-09T04:16:34.582Z,31.20
2023-02-09T04:19:02.591Z,30.30
2023-02-09T04:21:30.864Z,31.70
2023-02-09T04:24:00.165Z,30.67
2023-02-09T04:26:28.469Z,30.30
2023-02-09T04:28:56.424Z,32.43
2023-02-09T04:31:24.587Z,31.97
2023-02-09T04:33:52.958Z,30.93
2023-02-09T04:36:23.032Z,29.77
2023-02-09T04:38:51.150Z,30.03
2023-02-09T04:41:20.461Z,29.37
2023-02-09T04:43:48.425Z,29.43
2023-02-09T04:46:18.278Z,30.77
2023-02-09T04:48:46.970Z,29.43
2023-02-09T04:51:15.247Z,29.23
2023-02-09T04:53:43.092Z,28.57
2023-02-09T04:56:15.327Z,29.03
2023-02-09T04:59:02.629Z,28.50
2023-02-09T05:01:31.681Z,27.47
2023-02-09T05:03:59.934Z,27.20
2023-02-09T05:06:28.194Z,27.57
2023-02-09T05:08:56.018Z,27.57
2023-02-09T05:11:25.500Z,27.77
2023-02-09T05:13:55.031Z,27.63
2023-02-09T05:16:22.953Z,27.43
2023-02-09T05:18:51.426Z,27.13
2023-02-09T05:21:19.483Z,26.87
2023-02-09T05:23:47.586Z,26.20
2023-02-09T05:26:15.521Z,25.70
2023-02-09T05:28:43.491Z,26.93
2023-02-09T05:31:12.746Z,25.97
2023-02-09T05:33:40.766Z,27.03
2023-02-09T05:36:12.259Z,26.43
2023-02-09T05:38:40.624Z,26.57
2023-02-09T05:41:10.182Z,26.03
2023-02-09T05:43:38.440Z,26.57
2023-02-09T05:46:08.369Z,26.67
2023-02-09T05:48:38.007Z,25.60
2023-02-09T05:51:06.255Z,24.83
2023-02-09T05:53:34.169Z,25.47
2023-02-09T05:56:02.719Z,24.80
2023-02-09T05:58:30.592Z,25.07
2023-02-09T06:00:58.647Z,24.50
2023-02-09T06:03:26.708Z,23.70
2023-02-09T06:05:56.013Z,23.47
2023-02-09T06:08:24.055Z,24.90
2023-02-09T06:10:51.948Z,23.07
2023-02-09T06:13:19.989Z,23.67
2023-02-09T06:15:48.070Z,22.20
2023-02-09T06:18:16.111Z,22.33
2023-02-09T06:20:44.425Z,21.37
2023-02-09T06:23:14.045Z,21.60
2023-02-09T06:25:42.385Z,21.90
2023-02-09T06:28:10.263Z,21.63
2023-02-09T06:30:38.271Z,23.13
2023-02-09T06:33:06.201Z,21.03
2023-02-09T06:35:33.995Z,21.03
2023-02-09T06:38:02.098Z,22.60
2023-02-09T06:40:31.646Z,21.40
2023-02-09T06:42:59.482Z,20.40
2023-02-09T06:45:27.413Z,21.83
2023-02-09T06:47:55.585Z,21.23
2023-02-09T06:50:23.916Z,20.67
2023-02-09T06:52:52.169Z,21.07
2023-02-09T06:55:20.182Z,20.43
2023-02-09T06:57:49.475Z,21.90
2023-02-09T07:00:18.473Z,20.97
2023-02-09T07:02:46.661Z,20.53
2023-02-09T07:05:17.385Z,19.37
2023-02-09T07:07:46.550Z,20.27
2023-02-09T07:10:18.249Z,19.57
2023-02-09T07:12:46.333Z,21.77
2023-02-09T07:15:16.454Z,20.90
2023-02-09T07:17:44.537Z,20.00
2023-02-09T07:20:13.267Z,20.37
2023-02-09T07:22:41.180Z,19.67
2023-02-09T07:25:09.295Z,20.67
2023-02-09T07:27:37.259Z,18.83
2023-02-09T07:30:05.711Z,19.20
2023-02-09T07:32:38.537Z,18.33
2023-02-09T07:35:07.353Z,18.83
2023-02-09T07:37:36.198Z,18.80
2023-02-09T07:40:04.434Z,18.07
2023-02-09T07:42:32.524Z,18.27
2023-02-09T07:45:00.350Z,17.70
2023-02-09T07:47:28.339Z,18.23
2023-02-09T07:49:57.634Z,18.57
2023-02-09T07:52:25.683Z,17.97
2023-02-09T07:54:53.887Z,18.30
2023-02-09T07:57:21.801Z,17.97
2023-02-09T07:59:49.717Z,17.47
2023-02-09T08:02:27.177Z,18.17
2023-02-09T08:04:59.992Z,17.80
2023-02-09T08:07:28.789Z,18.07
2023-02-09T08:09:56.919Z,17.33
2023-02-09T08:12:48.419Z,17.10
2023-02-09T08:15:18.279Z,17.27
2023-02-09T08:17:46.179Z,17.57
2023-02-09T08:20:18.911Z,16.83
2023-02-09T08:22:50.201Z,16.93
2023-02-09T08:25:21.504Z,17.37
2023-02-09T08:27:50.956Z,16.77
2023-02-09T08:30:23.035Z,16.53
2023-02-09T08:32:50.933Z,15.17
2023-02-09T08:35:20.553Z,16.57
2023-02-09T08:37:48.599Z,15.00
2023-02-09T08:40:16.757Z,14.27
2023-02-09T08:42:44.968Z,15.07
2023-02-09T08:45:13.175Z,13.97
2023-02-09T08:47:41.200Z,14.00
2023-02-09T08:50:10.307Z,12.33
2023-02-09T08:52:39.509Z,11.77
2023-02-09T08:55:10.488Z,12.53
2023-02-09T08:57:44.493Z,11.93
2023-02-09T09:00:14.359Z,12.37
2023-02-09T09:02:42.417Z,12.60
2023-02-09T09:05:10.398Z,13.40
2023-02-09T09:07:40.180Z,11.67
2023-02-09T09:10:09.884Z,12.13
2023-02-09T09:12:38.018Z,12.47
2023-02-09T09:15:07.168Z,11.53
2023-02-09T09:17:35.026Z,11.57
2023-02-09T09:20:02.907Z,13.53
2023-02-09T09:22:30.774Z,12.23
2023-02-09T09:25:00.075Z,12.27
2023-02-09T09:27:28.290Z,12.13
2023-02-09T09:29:56.347Z,11.63
2023-02-09T09:32:25.130Z,13.97
2023-02-09T09:34:54.905Z,13.03
2023-02-09T09:37:23.124Z,11.77
2023-02-09T09:39:51.764Z,11.27
2023-02-09T09:42:26.479Z,11.57
2023-02-09T09:44:55.287Z,12.10
2023-02-09T09:47:34.970Z,11.70
2023-02-09T09:50:03.181Z,11.20
2023-02-09T09:52:38.146Z,11.53
2023-02-09T09:55:09.387Z,11.53
2023-02-09T09:57:44.601Z,11.73
2023-02-09T10:00:20.152Z,12.43
2023-02-09T10:02:48.555Z,12.07
2023-02-09T10:05:20.707Z,11.27
2023-02-09T10:07:56.006Z,11.87
2023-02-09T10:10:38.028Z,10.50
2023-02-09T10:13:17.145Z,12.40
2023-02-09T10:15:48.770Z,12.00
2023-02-09T10:18:18.354Z,11.77
2023-02-09T10:20:50.010Z,12.57
2023-02-09T10:23:21.254Z,10.90
2023-02-09T10:26:21.984Z,11.10
2023-02-09T10:28:53.083Z,11.80
2023-02-09T10:31:26.001Z,11.03
2023-02-09T10:33:58.752Z,11.47
2023-02-09T10:36:29.994Z,11.60
2023-02-09T10:39:13.836Z,11.90
2023-02-09T10:41:43.872Z,11.10
2023-02-09T10:44:19.190Z,11.93
2023-02-09T10:46:48.241Z,12.30
2023-02-09T10:49:31.774Z,12.53
2023-02-09T10:52:08.252Z,11.70
2023-02-09T10:54:36.344Z,11.10
2023-02-09T10:57:20.849Z,10.93
2023-02-09T10:59:54.647Z,11.10
2023-02-09T11:02:37.740Z,11.73
2023-02-09T11:05:30.735Z,11.97
2023-02-09T11:08:04.268Z,11.70
2023-02-09T11:10:35.837Z,12.00
2023-02-09T11:13:04.003Z,11.03
2023-02-09T11:15:40.815Z,11.60
2023-02-09T11:18:17.030Z,12.37
2023-02-09T11:20:52.774Z,11.67
2023-02-09T11:23:46.545Z,13.00
2023-02-09T11:26:24.326Z,12.47
2023-02-09T11:28:58.538Z,12.60
2023-02-09T11:31:55.688Z,12.50
2023-02-09T11:34:43.949Z,11.53
2023-02-09T11:37:26.766Z,12.40
2023-02-09T11:40:03.132Z,11.70
2023-02-09T11:42:46.508Z,12.13
2023-02-09T11:45:21.723Z,11.43
2023-02-09T11:48:00.049Z,11.80
2023-02-09T11:50:32.267Z,11.33
2023-02-09T11:53:04.905Z,11.20
2023-02-09T11:55:38.483Z,11.50
2023-02-09T11:58:30.268Z,12.27
2023-02-09T12:01:14.708Z,12.53
2023-02-09T12:03:56.564Z,12.20
2023-02-09T12:06:26.496Z,12.27
2023-02-09T12:09:04.628Z,12.23
2023-02-09T12:11:43.634Z,12.07
2023-02-09T12:14:36.594Z,12.87
2023-02-09T12:17:12.811Z,13.07
2023-02-09T12:19:45.096Z,12.37
2023-02-09T12:22:46.662Z,11.93
2023-02-09T12:25:22.439Z,12.03
2023-02-09T12:28:16.982Z,11.50
2023-02-09T12:31:03.068Z,11.90
2023-02-09T12:33:33.226Z,11.43
2023-02-09T12:36:05.816Z,11.80
2023-02-09T12:38:55.433Z,11.17
2023-02-09T12:41:26.722Z,12.33
2023-02-09T12:44:27.560Z,11.67
2023-02-09T12:46:58.280Z,11.43
2023-02-09T12:49:33.983Z,12.00
2023-02-09T12:52:19.419Z,11.97
2023-02-09T12:54:51.087Z,12.13
2023-02-09T12:58:12.576Z,12.10
2023-02-09T13:00:46.521Z,11.57
2023-02-09T13:03:19.385Z,13.27
2023-02-09T13:05:49.279Z,12.40
2023-02-09T13:08:29.161Z,12.57
2023-02-09T13:11:02.959Z,12.97
2023-02-09T13:13:47.321Z,12.80
2023-02-09T13:16:51.645Z,11.67
2023-02-09T13:19:47.062Z,12.47
2023-02-09T13:22:33.936Z,11.97
2023-02-09T13:25:14.233Z,13.27
2023-02-09T13:27:46.947Z,12.73
2023-02-09T13:30:25.219Z,11.90
2023-02-09T13:33:07.185Z,12.37
2023-02-09T13:35:44.251Z,12.83
2023-02-09T13:38:17.695Z,12.70
2023-02-09T13:40:53.681Z,12.17
2023-02-09T13:43:28.538Z,12.17
2023-02-09T13:45:58.454Z,13.37
2023-02-09T13:48:31.999Z,13.30
2023-02-09T13:51:03.256Z,13.00
2023-02-09T13:53:32.868Z,12.73
2023-02-09T13:56:02.374Z,13.13
2023-02-09T13:58:33.172Z,12.50
2023-02-09T14:01:04.515Z,13.60
2023-02-09T14:03:36.215Z,14.63
2023-02-09T14:06:10.410Z,14.03
2023-02-09T14:08:41.963Z,13.57
2023-02-09T14:11:41.125Z,13.10
2023-02-09T14:14:13.952Z,13.53
2023-02-09T14:16:52.977Z,13.13
2023-02-09T14:19:27.774Z,12.87
2023-02-09T14:21:55.721Z,13.70
2023-02-09T14:24:24.476Z,14.10
2023-02-09T14:27:04.021Z,14.13
2023-02-09T14:29:34.123Z,13.70
2023-02-09T14:32:05.268Z,13.90
2023-02-09T14:34:36.425Z,14.40
2023-02-09T14:37:26.877Z,13.93
2023-02-09T14:39:56.622Z,14.13
2023-02-09T14:42:26.077Z,14.00
2023-02-09T14:44:55.841Z,13.77
2023-02-09T14:47:32.601Z,13.60
2023-02-09T14:50:00.893Z,13.23
2023-02-09T14:52:32.733Z,13.67
2023-02-09T14:55:04.698Z,13.83
2023-02-09T14:57:36.603Z,14.40
2023-02-09T15:00:16.572Z,13.27
2023-02-09T15:02:44.846Z,14.40
2023-02-09T15:05:13.226Z,13.77
2023-02-09T15:07:43.945Z,13.17
2023-02-09T15:10:22.193Z,13.43
2023-02-09T15:12:51.883Z,13.47
2023-02-09T15:15:22.166Z,13.23
2023-02-09T15:17:50.516Z,13.40
2023-02-09T15:20:21.471Z,13.57
2023-02-09T15:22:49.350Z,13.80
2023-02-09T15:25:18.284Z,14.40
2023-02-09T15:27:51.791Z,13.73
2023-02-09T15:30:23.229Z,13.83
2023-02-09T15:32:51.303Z,13.83
2023-02-09T15:35:21.436Z,13.93
2023-02-09T15:37:52.856Z,14.00
2023-02-09T15:40:39.080Z,15.00
2023-02-09T15:43:30.589Z,13.60
2023-02-09T15:46:17.438Z,14.00
2023-02-09T15:48:45.595Z,13.67
2023-02-09T15:51:14.000Z,14.53
2023-02-09T15:53:42.355Z,14.90
2023-02-09T15:56:10.901Z,14.40
2023-02-09T15:58:42.267Z,14.40
2023-02-09T16:01:14.304Z,14.57
2023-02-09T16:03:42.212Z,15.17
2023-02-09T16:06:16.403Z,14.37
2023-02-09T16:08:45.428Z,14.13
2023-02-09T16:11:19.687Z,14.17
2023-02-09T16:13:47.659Z,14.97
2023-02-09T16:16:18.395Z,14.57
2023-02-09T16:18:46.826Z,15.07
2023-02-09T16:21:21.548Z,14.83
2023-02-09T16:23:49.670Z,14.87
2023-02-09T16:26:19.335Z,15.43
2023-02-09T16:28:48.237Z,14.40
2023-02-09T16:31:17.937Z,14.70
2023-02-09T16:33:46.204Z,14.03
2023-02-09T16:36:16.766Z,14.53
2023-02-09T16:38:45.023Z,14.87
2023-02-09T16:41:29.455Z,15.17
2023-02-09T16:43:57.401Z,14.77
2023-02-09T16:46:26.885Z,14.57
2023-02-09T16:48:55.413Z,16.27
2023-02-09T16:51:23.610Z,16.17
2023-02-09T16:53:52.766Z,15.13
2023-02-09T16:56:21.619Z,14.73
2023-02-09T16:58:49.941Z,15.03
2023-02-09T17:01:19.655Z,15.37
2023-02-09T17:03:51.661Z,15.10
2023-02-09T17:06:24.058Z,15.97
2023-02-09T17:08:53.288Z,15.80
2023-02-09T17:11:23.210Z,14.87
2023-02-09T17:13:54.578Z,15.57
2023-02-09T17:16:26.543Z,14.47
2023-02-09T17:19:00.552Z,15.37
2023-02-09T17:21:31.433Z,15.23
2023-02-09T17:23:59.854Z,16.10
2023-02-09T17:26:28.324Z,14.70
2023-02-09T17:28:57.244Z,14.70
2023-02-09T17:31:27.789Z,16.23
2023-02-09T17:33:59.592Z,15.70
2023-02-09T17:36:30.340Z,15.83
2023-02-09T17:39:01.226Z,15.33
2023-02-09T17:41:34.189Z,15.60
2023-02-09T17:44:24.228Z,14.80
2023-02-09T17:46:57.743Z,14.93
2023-02-09T17:49:27.156Z,14.73
2023-02-09T17:51:55.342Z,14.97
2023-02-09T17:54:23.355Z,15.63
2023-02-09T17:56:51.316Z,15.70
2023-02-09T17:59:22.902Z,16.00
2023-02-09T18:01:55.297Z,16.07
2023-02-09T18:04:26.910Z,15.37
2023-02-09T18:06:57.853Z,15.07
2023-02-09T18:09:25.961Z,16.53
2023-02-09T18:12:02.197Z,15.37
2023-02-09T18:14:34.937Z,15.80
2023-02-09T18:17:03.544Z,16.53
2023-02-09T18:19:33.043Z,16.60
2023-02-09T18:22:05.833Z,17.20
2023-02-09T18:24:35.501Z,16.03
2023-02-09T18:27:03.642Z,17.33
2023-02-09T18:29:31.957Z,16.17
2023-02-09T18:32:00.940Z,16.20
2023-02-09T18:34:29.291Z,16.10
2023-02-09T18:36:57.279Z,16.57
2023-02-09T18:39:26.532Z,16.30
2023-02-09T18:41:55.365Z,16.77
2023-02-09T18:44:36.730Z,16.53
2023-02-09T18:47:06.772Z,17.80
2023-02-09T18:49:35.663Z,17.10
2023-02-09T18:52:19.838Z,17.30
2023-02-09T18:54:49.232Z,16.80
2023-02-09T18:57:17.182Z,17.13
2023-02-09T18:59:47.825Z,17.63
2023-02-09T19:02:16.827Z,16.93
2023-02-09T19:04:45.045Z,17.43
2023-02-09T19:07:16.564Z,18.83
2023-02-09T19:09:46.037Z,17.80
2023-02-09T19:12:15.360Z,18.13
2023-02-09T19:14:47.573Z,17.40
2023-02-09T19:17:17.228Z,17.90
2023-02-09T19:19:46.040Z,19.13
2023-02-09T19:22:16.138Z,18.43
2023-02-09T19:24:44.429Z,17.97
2023-02-09T19:27:12.551Z,18.50
2023-02-09T19:29:42.577Z,18.33
2023-02-09T19:32:10.784Z,18.23
2023-02-09T19:34:41.012Z,19.53
2023-02-09T19:37:09.655Z,18.80
2023-02-09T19:39:38.790Z,19.10
2023-02-09T19:42:07.169Z,18.67
2023-02-09T19:44:36.348Z,18.97
2023-02-09T19:47:05.599Z,18.10
2023-02-09T19:49:34.413Z,19.57
2023-02-09T19:52:02.557Z,19.13
2023-02-09T19:54:30.470Z,18.73
2023-02-09T19:56:58.422Z,19.00
2023-02-09T19:59:26.455Z,20.20
2023-02-09T20:01:54.324Z,20.87
2023-02-09T20:04:23.971Z,20.33
2023-02-09T20:06:51.909Z,18.73
2023-02-09T20:09:19.727Z,21.57
2023-02-09T20:11:50.593Z,20.50
2023-02-09T20:14:18.770Z,20.10
2023-02-09T20:16:46.714Z,20.10
2023-02-09T20:19:15.788Z,20.27
2023-02-09T20:21:45.103Z,20.77
2023-02-09T20:24:14.613Z,22.13
2023-02-09T20:26:44.403Z,21.97
2023-02-09T20:29:12.774Z,21.50
2023-02-09T20:31:42.682Z,21.83
2023-02-09T20:34:13.780Z,22.37
2023-02-09T20:36:46.911Z,22.50
2023-02-09T20:39:17.670Z,20.90
2023-02-09T20:42:06.664Z,20.53
2023-02-09T20:44:53.498Z,21.57
2023-02-09T20:47:21.681Z,21.13
2023-02-09T20:49:49.675Z,21.63
2023-02-09T20:52:18.155Z,22.10
2023-02-09T20:54:48.436Z,21.13
2023-02-09T20:57:16.621Z,22.87
2023-02-09T20:59:44.596Z,21.13
2023-02-09T21:02:13.627Z,21.67
2023-02-09T21:04:41.691Z,22.27
2023-02-09T21:07:09.761Z,22.83
2023-02-09T21:09:38.702Z,23.00
2023-02-09T21:12:08.091Z,22.33
2023-02-09T21:14:43.916Z,24.07
2023-02-09T21:17:12.141Z,23.13
2023-02-09T21:19:40.628Z,25.03
2023-02-09T21:22:08.958Z,22.93
2023-02-09T21:24:38.581Z,24.43
2023-02-09T21:27:08.614Z,26.30
2023-02-09T21:29:37.080Z,26.13
2023-02-09T21:32:07.161Z,27.13
2023-02-09T21:34:35.121Z,27.70
2023-02-09T21:37:03.032Z,25.07
2023-02-09T21:39:31.505Z,26.67
2023-02-09T21:42:16.681Z,25.73
2023-02-09T21:44:45.931Z,23.53
2023-02-09T21:47:13.857Z,23.53
2023-02-09T21:49:41.796Z,23.80
2023-02-09T21:52:11.038Z,23.67
2023-02-09T21:54:41.473Z,22.60
2023-02-09T21:57:09.509Z,23.77
2023-02-09T21:59:37.562Z,24.53
2023-02-09T22:02:08.180Z,23.50
2023-02-09T22:04:36.240Z,26.33
2023-02-09T22:07:04.198Z,23.67
2023-02-09T22:09:32.234Z,22.23
2023-02-09T22:12:00.123Z,23.00
2023-02-09T22:14:28.782Z,24.63
2023-02-09T22:16:58.356Z,24.33
2023-02-09T22:19:27.888Z,24.50
2023-02-09T22:21:57.685Z,24.07
2023-02-09T22:24:26.243Z,23.13
2023-02-09T22:26:54.388Z,24.47
2023-02-09T22:29:22.510Z,24.43
2023-02-09T22:31:50.356Z,24.37
2023-02-09T22:34:18.161Z,24.67
2023-02-09T22:36:47.428Z,24.23
2023-02-09T22:39:15.447Z,25.37
2023-02-09T22:41:47.315Z,25.00
2023-02-09T22:44:17.422Z,25.27
2023-02-09T22:46:46.388Z,26.57
2023-02-09T22:49:17.676Z,25.37
2023-02-09T22:51:48.053Z,24.83
2023-02-09T22:54:18.085Z,25.90
2023-02-09T22:56:46.862Z,26.40
2023-02-09T22:59:16.034Z,25.20
2023-02-09T23:01:44.721Z,26.87
2023-02-09T23:04:13.309Z,26.43
2023-02-09T23:06:41.192Z,24.97
2023-02-09T23:09:11.031Z,24.63
2023-02-09T23:11:39.013Z,24.90
2023-02-09T23:14:11.503Z,26.07
2023-02-09T23:16:41.678Z,26.40
2023-02-09T23:19:16.641Z,25.47
2023-02-09T23:21:46.096Z,24.27
2023-02-09T23:24:16.850Z,25.23
2023-02-09T23:26:45.258Z,25.53
2023-02-09T23:29:15.750Z,24.33
2023-02-09T23:31:45.853Z,24.70
2023-02-09T23:34:16.489Z,25.87
2023-02-09T23:36:44.855Z,25.27
2023-02-09T23:39:17.029Z,25.50
2023-02-09T23:41:45.407Z,25.80
2023-02-09T23:44:13.635Z,25.77
2023-02-09T23:46:42.035Z,25.50
2023-02-09T23:49:10.119Z,26.60
2023-02-09T23:51:38.174Z,25.57
2023-02-09T23:54:07.896Z,26.60
2023-02-09T23:56:40.425Z,24.40
2023-02-09T23:59:12.561Z,25.43
